Jasper S — V2CQ4 — position and weather

sailwx.info

Track history (hours):
 
Tides and Currents Weather Stations Pressure Air Temp Water Temp Dewpoint Dewpoint Depression Visibility Wind Speed Wind Dir Waves Ship Positions

Jasper S

Last reported at 2015-Mar-31 15:09 UTC. Time now 2015-Mar-31 23:51 UTC.
Position N 40°56' E 028°40'.

Length 148 m; draft 6.2 m.

Type: Ship. MMSI: 305079000.

Date/timePositionNaut miles runAvg speedWind from/ knotsBaromVisibWave heightAir tempDewpointWater temp
2015-Mar-31 15:09N 40°56' E 028°40'4 7.2
2015-Mar-31 14:33N 40°52' E 028°42'7 6.7
2015-Mar-31 13:33N 40°48' E 028°49'9 9.2
2015-Mar-31 12:32N 40°48' E 029°02'8 8.5
2015-Mar-31 11:32N 40°50' E 029°13'3 2.9
2015-Mar-31 10:32N 40°50' E 029°17'0 0.0
2015-Mar-31 09:20N 40°50' E 029°17'0 0.0
2015-Mar-31 08:32N 40°50' E 029°17'0 0.0
2015-Mar-31 07:32N 40°50' E 029°17'0 0.0
2015-Mar-31 06:32N 40°50' E 029°17'0 0.0
2015-Mar-31 05:26N 40°50' E 029°17'0 0.0
2015-Mar-31 04:26N 40°50' E 029°17'0 0.0
2015-Mar-31 03:32N 40°50' E 029°17'0 0.0
2015-Mar-31 02:32N 40°50' E 029°17'0 0.0
2015-Mar-31 01:26N 40°50' E 029°17'0 0.0
2015-Mar-31 00:32N 40°50' E 029°17'0 0.0
2015-Mar-30 23:32N 40°50' E 029°17'0 0.0
2015-Mar-30 22:32N 40°50' E 029°17'0 0.0
2015-Mar-30 21:26N 40°50' E 029°17'0 0.0
2015-Mar-30 20:32N 40°50' E 029°17'0 0.0
2015-Mar-30 19:20N 40°50' E 029°17'0 0.0
2015-Mar-30 18:26N 40°50' E 029°17'0 0.0
2015-Mar-30 17:32N 40°50' E 029°17'0 0.0
2015-Mar-30 16:32N 40°50' E 029°17'0 0.0
2015-Mar-30 15:32N 40°50' E 029°17'0 0.0
2015-Mar-30 14:32N 40°50' E 029°17'0 0.0
2015-Mar-30 13:32N 40°50' E 029°17'0 0.0
2015-Mar-30 12:32N 40°50' E 029°17'0 0.0
2015-Mar-30 11:04N 40°50' E 029°17'0 0.0
2015-Mar-30 10:28N 40°50' E 029°17'0 0.0
2015-Mar-30 09:28N 40°50' E 029°17'0 0.0
2015-Mar-30 08:28N 40°50' E 029°17'0 0.0
2015-Mar-30 07:28N 40°50' E 029°17'0 0.0
2015-Mar-30 06:28N 40°50' E 029°17'0 0.0
2015-Mar-30 05:28N 40°50' E 029°17'0 0.0
2015-Mar-30 04:16N 40°50' E 029°17'0 0.0
2015-Mar-30 03:28N 40°50' E 029°17'0 0.0
2015-Mar-30 02:22N 40°50' E 029°17'0 0.0
2015-Mar-30 01:16N 40°50' E 029°17'0 0.0
2015-Mar-30 00:22N 40°50' E 029°17'0 0.0
2015-Mar-29 23:28N 40°50' E 029°17'0 0.0
2015-Mar-29 22:28N 40°50' E 029°17'0 0.0
2015-Mar-29 21:28N 40°50' E 029°17'0 0.0
2015-Mar-29 20:28N 40°50' E 029°17'0 0.0
2015-Mar-29 19:22N 40°50' E 029°17'0 0.0
2015-Mar-29 18:22N 40°50' E 029°17'0 0.0
2015-Mar-29 17:28N 40°50' E 029°17'0 0.0
2015-Mar-29 16:28N 40°50' E 029°17'0 0.0
2015-Mar-29 15:28N 40°50' E 029°17'0 0.0
2015-Mar-29 14:28N 40°50' E 029°17'0 0.0
2015-Mar-29 13:16N 40°50' E 029°17'0 0.2
2015-Mar-29 12:19N 40°50' E 029°17'0 0.4
2015-Mar-29 11:24N 40°50' E 029°16'0 0.0
2015-Mar-29 10:30N 40°50' E 029°16'0 0.0
2015-Mar-29 09:18N 40°50' E 029°16'0 0.0
2015-Mar-29 08:33N 40°50' E 029°16'0 0.0
2015-Mar-29 07:31N 40°50' E 029°16'0 0.0
2015-Mar-29 06:29N 40°50' E 029°16'0 0.0
2015-Mar-29 05:23N 40°50' E 029°16'0 0.0
2015-Mar-29 04:29N 40°50' E 029°16'0 0.0
2015-Mar-29 03:11N 40°50' E 029°16'0 0.0
2015-Mar-29 02:23N 40°50' E 029°16'0 0.0
2015-Mar-29 01:05N 40°50' E 029°16'0 0.0
2015-Mar-29 00:29N 40°50' E 029°16'0 0.0
2015-Mar-28 23:29N 40°50' E 029°16'0 0.0
2015-Mar-28 22:29N 40°50' E 029°16'0 0.0
2015-Mar-28 21:29N 40°50' E 029°16'0 0.0
2015-Mar-28 20:29N 40°50' E 029°16'0 0.0
2015-Mar-28 19:23N 40°50' E 029°16'0 0.0
2015-Mar-28 18:32N 40°50' E 029°16'0 0.0
2015-Mar-28 17:20N 40°50' E 029°16'0 0.0
2015-Mar-28 16:32N 40°50' E 029°16'0 0.0
2015-Mar-28 15:26N 40°50' E 029°16'0 0.0
2015-Mar-28 14:32N 40°50' E 029°16'0 0.0
2015-Mar-28 13:32N 40°50' E 029°16'0 0.0
2015-Mar-28 12:32N 40°50' E 029°16'0 0.0
2015-Mar-28 11:32N 40°50' E 029°16'0 0.0
2015-Mar-28 10:32N 40°50' E 029°16'0 0.0
2015-Mar-28 09:20N 40°50' E 029°16'0 0.0
2015-Mar-28 08:32N 40°50' E 029°16'0 0.0
2015-Mar-28 07:32N 40°50' E 029°16'0 0.0
2015-Mar-28 06:26N 40°50' E 029°16'0 0.0
2015-Mar-28 05:32N 40°50' E 029°16'0 0.0
2015-Mar-28 04:26N 40°50' E 029°16'0 0.0
2015-Mar-28 03:26N 40°50' E 029°16'0 0.0
2015-Mar-28 02:26N 40°50' E 029°16'0 0.0
2015-Mar-28 01:32N 40°50' E 029°16'0 0.0
2015-Mar-28 00:26N 40°50' E 029°16'0 0.0
2015-Mar-27 23:32N 40°50' E 029°16'0 0.0
2015-Mar-27 22:32N 40°50' E 029°16'0 0.0
2015-Mar-27 21:20N 40°50' E 029°16'0 0.0
2015-Mar-27 20:14N 40°50' E 029°16'0 0.0
2015-Mar-27 19:32N 40°50' E 029°16'0 0.0
2015-Mar-27 18:32N 40°50' E 029°16'0 0.0
2015-Mar-27 17:26N 40°50' E 029°16'0 0.0
2015-Mar-27 16:26N 40°50' E 029°16'0 0.0
2015-Mar-27 15:32N 40°50' E 029°16'0 0.0
2015-Mar-27 13:26N 40°50' E 029°16'0 0.0
2015-Mar-27 12:32N 40°50' E 029°16'0 0.0
2015-Mar-27 11:26N 40°50' E 029°16'0 0.0
2015-Mar-27 10:32N 40°50' E 029°16'0 0.0
2015-Mar-27 09:32N 40°50' E 029°16'0 0.0
2015-Mar-27 08:32N 40°50' E 029°16'0 0.0
2015-Mar-27 07:32N 40°50' E 029°16'0 0.0
2015-Mar-27 06:32N 40°50' E 029°16'0 0.0
2015-Mar-26 16:29N 40°50' E 029°16'0 0.0
2015-Mar-26 15:29N 40°50' E 029°16'0 0.0
2015-Mar-26 14:29N 40°50' E 029°16'0 0.0
2015-Mar-26 13:23N 40°50' E 029°16'0 0.0
2015-Mar-26 12:32N 40°50' E 029°16'0 0.0
2015-Mar-26 11:20N 40°50' E 029°16'0 0.0
2015-Mar-26 10:32N 40°50' E 029°16'0 0.0
2015-Mar-26 09:32N 40°50' E 029°16'0 0.0
2015-Mar-26 08:26N 40°50' E 029°16'0 0.0
2015-Mar-26 07:32N 40°50' E 029°16'0 0.0
2015-Mar-26 06:26N 40°50' E 029°16'0 0.0
2015-Mar-26 05:32N 40°50' E 029°16'0 0.0
2015-Mar-26 04:32N 40°50' E 029°16'0 0.0
2015-Mar-26 03:32N 40°50' E 029°16'0 0.0
2015-Mar-26 02:32N 40°50' E 029°16'0 0.0
2015-Mar-26 01:26N 40°50' E 029°16'0 0.0
2015-Mar-26 00:32N 40°50' E 029°16'0 0.0
2015-Mar-25 23:26N 40°50' E 029°16'0 0.0
2015-Mar-25 22:26N 40°50' E 029°16'0 0.0
2015-Mar-25 21:32N 40°50' E 029°16'0 0.0
2015-Mar-25 20:29N 40°50' E 029°16'0 0.0
2015-Mar-25 19:29N 40°50' E 029°16'0 0.0
2015-Mar-25 18:29N 40°50' E 029°16'0 0.0
2015-Mar-25 17:23N 40°50' E 029°16'0 0.0
2015-Mar-25 16:29N 40°50' E 029°16'0 0.0
2015-Mar-25 15:29N 40°50' E 029°16'0 0.0
2015-Mar-25 14:29N 40°50' E 029°16'0 0.0
2015-Mar-25 13:29N 40°50' E 029°16'0 0.0
2015-Mar-25 12:29N 40°50' E 029°16'0 0.0
2015-Mar-25 11:29N 40°50' E 029°16'0 0.0
2015-Mar-25 10:29N 40°50' E 029°16'0 0.0
2015-Mar-25 09:29N 40°50' E 029°16'0 0.0
2015-Mar-25 08:23N 40°50' E 029°16'0 0.0
2015-Mar-25 07:29N 40°50' E 029°16'0 0.0
2015-Mar-25 06:21N 40°50' E 029°16'0 0.0
2015-Mar-25 05:33N 40°50' E 029°16'0 0.0
2015-Mar-25 04:21N 40°50' E 029°16'0 0.0
2015-Mar-25 03:33N 40°50' E 029°16'0 0.0
2015-Mar-25 02:33N 40°50' E 029°16'0 0.0
2015-Mar-25 01:33N 40°50' E 029°16'0 0.0
2015-Mar-25 00:33N 40°50' E 029°16'0 0.0
2015-Mar-24 23:33N 40°50' E 029°16'0 0.0
2015-Mar-24 22:21N 40°50' E 029°16'0 0.0
2015-Mar-24 21:33N 40°50' E 029°16'0 0.0
2015-Mar-24 20:33N 40°50' E 029°16'0 0.0
2015-Mar-24 19:33N 40°50' E 029°16'0 0.0
2015-Mar-24 17:33N 40°50' E 029°16'0 0.0
2015-Mar-24 16:27N 40°50' E 029°16'0 0.0
2015-Mar-24 15:33N 40°50' E 029°16'0 0.0
2015-Mar-24 14:27N 40°50' E 029°16'0 0.0
2015-Mar-24 13:27N 40°50' E 029°16'0 0.0
2015-Mar-24 12:27N 40°50' E 029°16'0 0.0
2015-Mar-24 11:27N 40°50' E 029°16'0 0.0
2015-Mar-24 09:21N 40°50' E 029°16'0 0.0
2015-Mar-24 08:33N 40°50' E 029°16'0 0.0
2015-Mar-24 07:33N 40°50' E 029°16'0 0.0
2015-Mar-24 06:27N 40°50' E 029°16'0 0.0
2015-Mar-24 05:27N 40°50' E 029°16'0 0.0
2015-Mar-24 04:27N 40°50' E 029°16'0 0.0
2015-Mar-24 03:33N 40°50' E 029°16'0 0.0
2015-Mar-24 02:33N 40°50' E 029°16'0 0.0
2015-Mar-24 01:33N 40°50' E 029°16'0 0.0
2015-Mar-24 00:21N 40°50' E 029°16'0 0.0
2015-Mar-23 23:21N 40°50' E 029°16'0 0.0
2015-Mar-23 22:33N 40°50' E 029°16'0 0.0
2015-Mar-23 21:33N 40°50' E 029°16'0 0.0
2015-Mar-23 20:33N 40°50' E 029°16'0 0.0
2015-Mar-23 19:33N 40°50' E 029°16'0 0.0
2015-Mar-23 18:33N 40°50' E 029°16'0 0.0
2015-Mar-23 17:21N 40°50' E 029°16'0 0.0
2015-Mar-23 16:33N 40°50' E 029°16'0 0.0
2015-Mar-23 15:33N 40°50' E 029°16'0 0.0
2015-Mar-23 14:33N 40°50' E 029°16'0 0.0
2015-Mar-23 13:33N 40°50' E 029°16'0 0.0
2015-Mar-23 12:33N 40°50' E 029°16'0 0.0
2015-Mar-23 11:32N 40°50' E 029°16'0 0.0
2015-Mar-23 10:22N 40°50' E 029°16'0 0.0
2015-Mar-23 09:28N 40°50' E 029°16'0 0.0
2015-Mar-23 08:22N 40°50' E 029°16'0 0.0
2015-Mar-23 07:26N 40°50' E 029°16'0 0.0
2015-Mar-23 06:32N 40°50' E 029°16'0 0.0
2015-Mar-23 05:20N 40°50' E 029°16'0 0.0
2015-Mar-23 04:26N 40°50' E 029°16'0 0.0
2015-Mar-23 03:32N 40°50' E 029°16'0 0.0
2015-Mar-23 02:26N 40°50' E 029°16'0 0.0
2015-Mar-23 01:32N 40°50' E 029°16'0 0.0
2015-Mar-23 00:32N 40°50' E 029°16'0 0.0
2015-Mar-22 23:32N 40°50' E 029°16'0 0.0
2015-Mar-22 22:26N 40°50' E 029°16'0 0.0
2015-Mar-22 21:32N 40°50' E 029°16'0 0.0
2015-Mar-22 20:32N 40°50' E 029°16'0 0.0
2015-Mar-22 19:32N 40°50' E 029°16'0 0.0
2015-Mar-22 18:32N 40°50' E 029°16'0 0.0
2015-Mar-22 17:26N 40°50' E 029°16'0 0.0
2015-Mar-22 16:32N 40°50' E 029°16'0 0.0
2015-Mar-22 15:20N 40°50' E 029°16'0 0.0
2015-Mar-22 14:28N 40°50' E 029°16'0 0.0
2015-Mar-22 13:28N 40°50' E 029°16'0 0.0
2015-Mar-22 12:28N 40°50' E 029°16'0 0.0
2015-Mar-22 11:32N 40°50' E 029°16'0 0.0
2015-Mar-22 10:32N 40°50' E 029°16'0 0.0
2015-Mar-22 09:20N 40°50' E 029°16'0 0.0
2015-Mar-22 08:32N 40°50' E 029°16'0 0.0
2015-Mar-22 07:32N 40°50' E 029°16'0 0.0
2015-Mar-22 06:32N 40°50' E 029°16'0 0.0
2015-Mar-22 05:32N 40°50' E 029°16'0 0.0
2015-Mar-22 04:20N 40°50' E 029°16'0 0.0
2015-Mar-22 03:20N 40°50' E 029°16'0 0.0
2015-Mar-22 02:26N 40°50' E 029°16'0 0.0
2015-Mar-22 01:32N 40°50' E 029°16'0 0.0
2015-Mar-22 00:32N 40°50' E 029°16'0 0.0
2015-Mar-21 23:32N 40°50' E 029°16'0 0.0
2015-Mar-21 22:20N 40°50' E 029°16'0 0.0
2015-Mar-21 21:26N 40°50' E 029°16'0 0.0
2015-Mar-21 20:26N 40°50' E 029°16'0 0.0
2015-Mar-21 19:32N 40°50' E 029°16'0 0.0
2015-Mar-21 18:32N 40°50' E 029°16'0 0.0
2015-Mar-21 17:32N 40°50' E 029°16'0 0.0
2015-Mar-21 16:32N 40°50' E 029°16'0 0.0
2015-Mar-21 15:32N 40°50' E 029°16'  
Track history (hours):
 
Tides and Currents Weather Stations Pressure Air Temp Water Temp Dewpoint Dewpoint Depression Visibility Wind Speed Wind Dir Waves Ship Positions

Jasper S

Last reported at 2015-Mar-31 15:09 UTC. Time now 2015-Mar-31 23:51 UTC.
Position N 40°56' E 028°40'.

Length 148 m; draft 6.2 m.

Type: Ship. MMSI: 305079000.

Date/timePositionNaut miles runAvg speedWind from/ knotsBaromVisibWave heightAir tempDewpointWater temp
2015-Mar-31 15:09N 40°56' E 028°40'4 7.2
2015-Mar-31 14:33N 40°52' E 028°42'7 6.7
2015-Mar-31 13:33N 40°48' E 028°49'9 9.2
2015-Mar-31 12:32N 40°48' E 029°02'8 8.5
2015-Mar-31 11:32N 40°50' E 029°13'3 2.9
2015-Mar-31 10:32N 40°50' E 029°17'0 0.0
2015-Mar-31 09:20N 40°50' E 029°17'0 0.0
2015-Mar-31 08:32N 40°50' E 029°17'0 0.0
2015-Mar-31 07:32N 40°50' E 029°17'0 0.0
2015-Mar-31 06:32N 40°50' E 029°17'0 0.0
2015-Mar-31 05:26N 40°50' E 029°17'0 0.0
2015-Mar-31 04:26N 40°50' E 029°17'0 0.0
2015-Mar-31 03:32N 40°50' E 029°17'0 0.0
2015-Mar-31 02:32N 40°50' E 029°17'0 0.0
2015-Mar-31 01:26N 40°50' E 029°17'0 0.0
2015-Mar-31 00:32N 40°50' E 029°17'0 0.0
2015-Mar-30 23:32N 40°50' E 029°17'0 0.0
2015-Mar-30 22:32N 40°50' E 029°17'0 0.0
2015-Mar-30 21:26N 40°50' E 029°17'0 0.0
2015-Mar-30 20:32N 40°50' E 029°17'0 0.0
2015-Mar-30 19:20N 40°50' E 029°17'0 0.0
2015-Mar-30 18:26N 40°50' E 029°17'0 0.0
2015-Mar-30 17:32N 40°50' E 029°17'0 0.0
2015-Mar-30 16:32N 40°50' E 029°17'0 0.0
2015-Mar-30 15:32N 40°50' E 029°17'0 0.0
2015-Mar-30 14:32N 40°50' E 029°17'0 0.0
2015-Mar-30 13:32N 40°50' E 029°17'0 0.0
2015-Mar-30 12:32N 40°50' E 029°17'0 0.0
2015-Mar-30 11:04N 40°50' E 029°17'0 0.0
2015-Mar-30 10:28N 40°50' E 029°17'0 0.0
2015-Mar-30 09:28N 40°50' E 029°17'0 0.0
2015-Mar-30 08:28N 40°50' E 029°17'0 0.0
2015-Mar-30 07:28N 40°50' E 029°17'0 0.0
2015-Mar-30 06:28N 40°50' E 029°17'0 0.0
2015-Mar-30 05:28N 40°50' E 029°17'0 0.0
2015-Mar-30 04:16N 40°50' E 029°17'0 0.0
2015-Mar-30 03:28N 40°50' E 029°17'0 0.0
2015-Mar-30 02:22N 40°50' E 029°17'0 0.0
2015-Mar-30 01:16N 40°50' E 029°17'0 0.0
2015-Mar-30 00:22N 40°50' E 029°17'0 0.0
2015-Mar-29 23:28N 40°50' E 029°17'0 0.0
2015-Mar-29 22:28N 40°50' E 029°17'0 0.0
2015-Mar-29 21:28N 40°50' E 029°17'0 0.0
2015-Mar-29 20:28N 40°50' E 029°17'0 0.0
2015-Mar-29 19:22N 40°50' E 029°17'0 0.0
2015-Mar-29 18:22N 40°50' E 029°17'0 0.0
2015-Mar-29 17:28N 40°50' E 029°17'0 0.0
2015-Mar-29 16:28N 40°50' E 029°17'0 0.0
2015-Mar-29 15:28N 40°50' E 029°17'0 0.0
2015-Mar-29 14:28N 40°50' E 029°17'0 0.0
2015-Mar-29 13:16N 40°50' E 029°17'0 0.2
2015-Mar-29 12:19N 40°50' E 029°17'0 0.4
2015-Mar-29 11:24N 40°50' E 029°16'0 0.0
2015-Mar-29 10:30N 40°50' E 029°16'0 0.0
2015-Mar-29 09:18N 40°50' E 029°16'0 0.0
2015-Mar-29 08:33N 40°50' E 029°16'0 0.0
2015-Mar-29 07:31N 40°50' E 029°16'0 0.0
2015-Mar-29 06:29N 40°50' E 029°16'0 0.0
2015-Mar-29 05:23N 40°50' E 029°16'0 0.0
2015-Mar-29 04:29N 40°50' E 029°16'0 0.0
2015-Mar-29 03:11N 40°50' E 029°16'0 0.0
2015-Mar-29 02:23N 40°50' E 029°16'0 0.0
2015-Mar-29 01:05N 40°50' E 029°16'0 0.0
2015-Mar-29 00:29N 40°50' E 029°16'0 0.0
2015-Mar-28 23:29N 40°50' E 029°16'0 0.0
2015-Mar-28 22:29N 40°50' E 029°16'0 0.0
2015-Mar-28 21:29N 40°50' E 029°16'0 0.0
2015-Mar-28 20:29N 40°50' E 029°16'0 0.0
2015-Mar-28 19:23N 40°50' E 029°16'0 0.0
2015-Mar-28 18:32N 40°50' E 029°16'0 0.0
2015-Mar-28 17:20N 40°50' E 029°16'0 0.0
2015-Mar-28 16:32N 40°50' E 029°16'0 0.0
2015-Mar-28 15:26N 40°50' E 029°16'0 0.0
2015-Mar-28 14:32N 40°50' E 029°16'0 0.0
2015-Mar-28 13:32N 40°50' E 029°16'0 0.0
2015-Mar-28 12:32N 40°50' E 029°16'0 0.0
2015-Mar-28 11:32N 40°50' E 029°16'0 0.0
2015-Mar-28 10:32N 40°50' E 029°16'0 0.0
2015-Mar-28 09:20N 40°50' E 029°16'0 0.0
2015-Mar-28 08:32N 40°50' E 029°16'0 0.0
2015-Mar-28 07:32N 40°50' E 029°16'0 0.0
2015-Mar-28 06:26N 40°50' E 029°16'0 0.0
2015-Mar-28 05:32N 40°50' E 029°16'0 0.0
2015-Mar-28 04:26N 40°50' E 029°16'0 0.0
2015-Mar-28 03:26N 40°50' E 029°16'0 0.0
2015-Mar-28 02:26N 40°50' E 029°16'0 0.0
2015-Mar-28 01:32N 40°50' E 029°16'0 0.0
2015-Mar-28 00:26N 40°50' E 029°16'0 0.0
2015-Mar-27 23:32N 40°50' E 029°16'0 0.0
2015-Mar-27 22:32N 40°50' E 029°16'0 0.0
2015-Mar-27 21:20N 40°50' E 029°16'0 0.0
2015-Mar-27 20:14N 40°50' E 029°16'0 0.0
2015-Mar-27 19:32N 40°50' E 029°16'0 0.0
2015-Mar-27 18:32N 40°50' E 029°16'0 0.0
2015-Mar-27 17:26N 40°50' E 029°16'0 0.0
2015-Mar-27 16:26N 40°50' E 029°16'0 0.0
2015-Mar-27 15:32N 40°50' E 029°16'0 0.0
2015-Mar-27 13:26N 40°50' E 029°16'0 0.0
2015-Mar-27 12:32N 40°50' E 029°16'0 0.0
2015-Mar-27 11:26N 40°50' E 029°16'0 0.0
2015-Mar-27 10:32N 40°50' E 029°16'0 0.0
2015-Mar-27 09:32N 40°50' E 029°16'0 0.0
2015-Mar-27 08:32N 40°50' E 029°16'0 0.0
2015-Mar-27 07:32N 40°50' E 029°16'0 0.0
2015-Mar-27 06:32N 40°50' E 029°16'0 0.0
2015-Mar-26 16:29N 40°50' E 029°16'0 0.0
2015-Mar-26 15:29N 40°50' E 029°16'0 0.0
2015-Mar-26 14:29N 40°50' E 029°16'0 0.0
2015-Mar-26 13:23N 40°50' E 029°16'0 0.0
2015-Mar-26 12:32N 40°50' E 029°16'0 0.0
2015-Mar-26 11:20N 40°50' E 029°16'0 0.0
2015-Mar-26 10:32N 40°50' E 029°16'0 0.0
2015-Mar-26 09:32N 40°50' E 029°16'0 0.0
2015-Mar-26 08:26N 40°50' E 029°16'0 0.0
2015-Mar-26 07:32N 40°50' E 029°16'0 0.0
2015-Mar-26 06:26N 40°50' E 029°16'0 0.0
2015-Mar-26 05:32N 40°50' E 029°16'0 0.0
2015-Mar-26 04:32N 40°50' E 029°16'0 0.0
2015-Mar-26 03:32N 40°50' E 029°16'0 0.0
2015-Mar-26 02:32N 40°50' E 029°16'0 0.0
2015-Mar-26 01:26N 40°50' E 029°16'0 0.0
2015-Mar-26 00:32N 40°50' E 029°16'0 0.0
2015-Mar-25 23:26N 40°50' E 029°16'0 0.0
2015-Mar-25 22:26N 40°50' E 029°16'0 0.0
2015-Mar-25 21:32N 40°50' E 029°16'0 0.0
2015-Mar-25 20:29N 40°50' E 029°16'0 0.0
2015-Mar-25 19:29N 40°50' E 029°16'0 0.0
2015-Mar-25 18:29N 40°50' E 029°16'0 0.0
2015-Mar-25 17:23N 40°50' E 029°16'0 0.0
2015-Mar-25 16:29N 40°50' E 029°16'0 0.0
2015-Mar-25 15:29N 40°50' E 029°16'0 0.0
2015-Mar-25 14:29N 40°50' E 029°16'0 0.0
2015-Mar-25 13:29N 40°50' E 029°16'0 0.0
2015-Mar-25 12:29N 40°50' E 029°16'0 0.0
2015-Mar-25 11:29N 40°50' E 029°16'0 0.0
2015-Mar-25 10:29N 40°50' E 029°16'0 0.0
2015-Mar-25 09:29N 40°50' E 029°16'0 0.0
2015-Mar-25 08:23N 40°50' E 029°16'0 0.0
2015-Mar-25 07:29N 40°50' E 029°16'0 0.0
2015-Mar-25 06:21N 40°50' E 029°16'0 0.0
2015-Mar-25 05:33N 40°50' E 029°16'0 0.0
2015-Mar-25 04:21N 40°50' E 029°16'0 0.0
2015-Mar-25 03:33N 40°50' E 029°16'0 0.0
2015-Mar-25 02:33N 40°50' E 029°16'0 0.0
2015-Mar-25 01:33N 40°50' E 029°16'0 0.0
2015-Mar-25 00:33N 40°50' E 029°16'0 0.0
2015-Mar-24 23:33N 40°50' E 029°16'0 0.0
2015-Mar-24 22:21N 40°50' E 029°16'0 0.0
2015-Mar-24 21:33N 40°50' E 029°16'0 0.0
2015-Mar-24 20:33N 40°50' E 029°16'0 0.0
2015-Mar-24 19:33N 40°50' E 029°16'0 0.0
2015-Mar-24 17:33N 40°50' E 029°16'0 0.0
2015-Mar-24 16:27N 40°50' E 029°16'0 0.0
2015-Mar-24 15:33N 40°50' E 029°16'0 0.0
2015-Mar-24 14:27N 40°50' E 029°16'0 0.0
2015-Mar-24 13:27N 40°50' E 029°16'0 0.0
2015-Mar-24 12:27N 40°50' E 029°16'0 0.0
2015-Mar-24 11:27N 40°50' E 029°16'0 0.0
2015-Mar-24 09:21N 40°50' E 029°16'0 0.0
2015-Mar-24 08:33N 40°50' E 029°16'0 0.0
2015-Mar-24 07:33N 40°50' E 029°16'0 0.0
2015-Mar-24 06:27N 40°50' E 029°16'0 0.0
2015-Mar-24 05:27N 40°50' E 029°16'0 0.0
2015-Mar-24 04:27N 40°50' E 029°16'0 0.0
2015-Mar-24 03:33N 40°50' E 029°16'0 0.0
2015-Mar-24 02:33N 40°50' E 029°16'0 0.0
2015-Mar-24 01:33N 40°50' E 029°16'0 0.0
2015-Mar-24 00:21N 40°50' E 029°16'0 0.0
2015-Mar-23 23:21N 40°50' E 029°16'0 0.0
2015-Mar-23 22:33N 40°50' E 029°16'0 0.0
2015-Mar-23 21:33N 40°50' E 029°16'0 0.0
2015-Mar-23 20:33N 40°50' E 029°16'0 0.0
2015-Mar-23 19:33N 40°50' E 029°16'0 0.0
2015-Mar-23 18:33N 40°50' E 029°16'0 0.0
2015-Mar-23 17:21N 40°50' E 029°16'0 0.0
2015-Mar-23 16:33N 40°50' E 029°16'0 0.0
2015-Mar-23 15:33N 40°50' E 029°16'0 0.0
2015-Mar-23 14:33N 40°50' E 029°16'0 0.0
2015-Mar-23 13:33N 40°50' E 029°16'0 0.0
2015-Mar-23 12:33N 40°50' E 029°16'0 0.0
2015-Mar-23 11:32N 40°50' E 029°16'0 0.0
2015-Mar-23 10:22N 40°50' E 029°16'0 0.0
2015-Mar-23 09:28N 40°50' E 029°16'0 0.0
2015-Mar-23 08:22N 40°50' E 029°16'0 0.0
2015-Mar-23 07:26N 40°50' E 029°16'0 0.0
2015-Mar-23 06:32N 40°50' E 029°16'0 0.0
2015-Mar-23 05:20N 40°50' E 029°16'0 0.0
2015-Mar-23 04:26N 40°50' E 029°16'0 0.0
2015-Mar-23 03:32N 40°50' E 029°16'0 0.0
2015-Mar-23 02:26N 40°50' E 029°16'0 0.0
2015-Mar-23 01:32N 40°50' E 029°16'0 0.0
2015-Mar-23 00:32N 40°50' E 029°16'0 0.0
2015-Mar-22 23:32N 40°50' E 029°16'0 0.0
2015-Mar-22 22:26N 40°50' E 029°16'0 0.0
2015-Mar-22 21:32N 40°50' E 029°16'0 0.0
2015-Mar-22 20:32N 40°50' E 029°16'0 0.0
2015-Mar-22 19:32N 40°50' E 029°16'0 0.0
2015-Mar-22 18:32N 40°50' E 029°16'0 0.0
2015-Mar-22 17:26N 40°50' E 029°16'0 0.0
2015-Mar-22 16:32N 40°50' E 029°16'0 0.0
2015-Mar-22 15:20N 40°50' E 029°16'0 0.0
2015-Mar-22 14:28N 40°50' E 029°16'0 0.0
2015-Mar-22 13:28N 40°50' E 029°16'0 0.0
2015-Mar-22 12:28N 40°50' E 029°16'0 0.0
2015-Mar-22 11:32N 40°50' E 029°16'0 0.0
2015-Mar-22 10:32N 40°50' E 029°16'0 0.0
2015-Mar-22 09:20N 40°50' E 029°16'0 0.0
2015-Mar-22 08:32N 40°50' E 029°16'0 0.0
2015-Mar-22 07:32N 40°50' E 029°16'0 0.0
2015-Mar-22 06:32N 40°50' E 029°16'0 0.0
2015-Mar-22 05:32N 40°50' E 029°16'0 0.0
2015-Mar-22 04:20N 40°50' E 029°16'0 0.0
2015-Mar-22 03:20N 40°50' E 029°16'0 0.0
2015-Mar-22 02:26N 40°50' E 029°16'0 0.0
2015-Mar-22 01:32N 40°50' E 029°16'0 0.0
2015-Mar-22 00:32N 40°50' E 029°16'0 0.0
2015-Mar-21 23:32N 40°50' E 029°16'0 0.0
2015-Mar-21 22:20N 40°50' E 029°16'0 0.0
2015-Mar-21 21:26N 40°50' E 029°16'0 0.0
2015-Mar-21 20:26N 40°50' E 029°16'0 0.0
2015-Mar-21 19:32N 40°50' E 029°16'0 0.0
2015-Mar-21 18:32N 40°50' E 029°16'0 0.0
2015-Mar-21 17:32N 40°50' E 029°16'0 0.0
2015-Mar-21 16:32N 40°50' E 029°16'0 0.0
2015-Mar-21 15:32N 40°50' E 029°16'  

Dump ship's entire track history